sensor_id;sensor_type;location;lat;lon;timestamp;temperature;humidity
40538;DHT22;27925;41.874;12.526;2023-07-29T00:04:01;26.40;66.20
40538;DHT22;27925;41.874;12.526;2023-07-29T00:06:27;26.30;66.30
40538;DHT22;27925;41.874;12.526;2023-07-29T00:08:53;26.30;66.40
40538;DHT22;27925;41.874;12.526;2023-07-29T00:11:19;26.30;66.20
40538;DHT22;27925;41.874;12.526;2023-07-29T00:13:44;26.30;66.40
40538;DHT22;27925;41.874;12.526;2023-07-29T00:16:10;26.30;66.30
40538;DHT22;27925;41.874;12.526;2023-07-29T00:18:36;26.30;66.30
40538;DHT22;27925;41.874;12.526;2023-07-29T00:21:01;26.20;66.40
40538;DHT22;27925;41.874;12.526;2023-07-29T00:23:27;26.20;66.40
40538;DHT22;27925;41.874;12.526;2023-07-29T00:25:53;26.20;66.60
40538;DHT22;27925;41.874;12.526;2023-07-29T00:28:19;26.20;66.50
40538;DHT22;27925;41.874;12.526;2023-07-29T00:30:44;26.20;66.40
40538;DHT22;27925;41.874;12.526;2023-07-29T00:33:10;26.20;66.60
40538;DHT22;27925;41.874;12.526;2023-07-29T00:35:36;26.20;66.30
40538;DHT22;27925;41.874;12.526;2023-07-29T00:38:01;26.20;66.40
40538;DHT22;27925;41.874;12.526;2023-07-29T00:40:28;26.20;66.30
40538;DHT22;27925;41.874;12.526;2023-07-29T00:42:54;26.10;66.70
40538;DHT22;27925;41.874;12.526;2023-07-29T00:45:20;26.10;66.00
40538;DHT22;27925;41.874;12.526;2023-07-29T00:47:46;26.10;66.00
40538;DHT22;27925;41.874;12.526;2023-07-29T00:50:13;26.10;66.30
40538;DHT22;27925;41.874;12.526;2023-07-29T00:52:40;26.10;66.30
40538;DHT22;27925;41.874;12.526;2023-07-29T00:55:07;26.00;66.00
40538;DHT22;27925;41.874;12.526;2023-07-29T00:57:33;26.00;66.20
40538;DHT22;27925;41.874;12.526;2023-07-29T01:00:00;26.00;65.90
40538;DHT22;27925;41.874;12.526;2023-07-29T01:02:26;26.00;65.90
40538;DHT22;27925;41.874;12.526;2023-07-29T01:04:54;26.00;65.80
40538;DHT22;27925;41.874;12.526;2023-07-29T01:18:05;25.90;64.90
40538;DHT22;27925;41.874;12.526;2023-07-29T01:20:34;25.80;64.60
40538;DHT22;27925;41.874;12.526;2023-07-29T01:23:01;25.70;64.50
40538;DHT22;27925;41.874;12.526;2023-07-29T01:25:27;25.70;64.50
40538;DHT22;27925;41.874;12.526;2023-07-29T01:27:52;25.70;64.30
40538;DHT22;27925;41.874;12.526;2023-07-29T01:30:20;25.70;64.30
40538;DHT22;27925;41.874;12.526;2023-07-29T01:32:56;25.60;64.20
40538;DHT22;27925;41.874;12.526;2023-07-29T01:35:40;25.60;64.40
40538;DHT22;27925;41.874;12.526;2023-07-29T01:38:18;25.60;64.60
40538;DHT22;27925;41.874;12.526;2023-07-29T01:40:48;25.60;64.60
40538;DHT22;27925;41.874;12.526;2023-07-29T01:43:14;25.50;64.60
40538;DHT22;27925;41.874;12.526;2023-07-29T01:45:40;25.50;64.50
40538;DHT22;27925;41.874;12.526;2023-07-29T01:48:07;25.50;64.50
40538;DHT22;27925;41.874;12.526;2023-07-29T01:50:36;25.50;64.80
40538;DHT22;27925;41.874;12.526;2023-07-29T01:53:02;25.40;64.90
40538;DHT22;27925;41.874;12.526;2023-07-29T01:55:28;25.40;65.00
40538;DHT22;27925;41.874;12.526;2023-07-29T01:57:54;25.30;65.20
40538;DHT22;27925;41.874;12.526;2023-07-29T02:00:20;25.30;65.30
40538;DHT22;27925;41.874;12.526;2023-07-29T02:02:46;25.30;65.10
40538;DHT22;27925;41.874;12.526;2023-07-29T02:05:12;25.30;64.80
40538;DHT22;27925;41.874;12.526;2023-07-29T02:07:37;25.20;64.70
40538;DHT22;27925;41.874;12.526;2023-07-29T02:10:03;25.10;64.50
40538;DHT22;27925;41.874;12.526;2023-07-29T02:12:29;25.00;64.40
40538;DHT22;27925;41.874;12.526;2023-07-29T02:14:55;25.00;64.40
40538;DHT22;27925;41.874;12.526;2023-07-29T02:17:21;25.00;64.40
40538;DHT22;27925;41.874;12.526;2023-07-29T02:19:46;25.00;64.20
40538;DHT22;27925;41.874;12.526;2023-07-29T02:22:16;24.90;64.20
40538;DHT22;27925;41.874;12.526;2023-07-29T02:24:42;24.90;64.40
40538;DHT22;27925;41.874;12.526;2023-07-29T02:27:08;24.90;64.10
40538;DHT22;27925;41.874;12.526;2023-07-29T02:29:34;24.90;63.90
40538;DHT22;27925;41.874;12.526;2023-07-29T02:32:00;24.90;63.80
40538;DHT22;27925;41.874;12.526;2023-07-29T02:34:25;24.90;63.70
40538;DHT22;27925;41.874;12.526;2023-07-29T02:36:51;24.90;63.90
40538;DHT22;27925;41.874;12.526;2023-07-29T02:39:17;24.90;63.70
40538;DHT22;27925;41.874;12.526;2023-07-29T02:41:43;24.90;63.50
40538;DHT22;27925;41.874;12.526;2023-07-29T02:44:08;24.90;63.60
40538;DHT22;27925;41.874;12.526;2023-07-29T02:46:34;24.90;63.40
40538;DHT22;27925;41.874;12.526;2023-07-29T02:49:01;24.80;63.40
40538;DHT22;27925;41.874;12.526;2023-07-29T02:51:26;24.70;63.50
40538;DHT22;27925;41.874;12.526;2023-07-29T02:53:52;24.70;63.70
40538;DHT22;27925;41.874;12.526;2023-07-29T02:56:18;24.70;63.70
40538;DHT22;27925;41.874;12.526;2023-07-29T02:58:44;24.70;63.90
40538;DHT22;27925;41.874;12.526;2023-07-29T03:01:10;24.60;63.90
40538;DHT22;27925;41.874;12.526;2023-07-29T03:03:35;24.60;63.80
40538;DHT22;27925;41.874;12.526;2023-07-29T03:06:06;24.60;63.90
40538;DHT22;27925;41.874;12.526;2023-07-29T03:08:32;24.60;64.60
40538;DHT22;27925;41.874;12.526;2023-07-29T03:10:58;24.60;63.90
40538;DHT22;27925;41.874;12.526;2023-07-29T03:13:24;24.60;63.70
40538;DHT22;27925;41.874;12.526;2023-07-29T03:15:50;24.50;63.90
40538;DHT22;27925;41.874;12.526;2023-07-29T03:18:16;24.40;63.90
40538;DHT22;27925;41.874;12.526;2023-07-29T03:20:42;24.30;63.80
40538;DHT22;27925;41.874;12.526;2023-07-29T03:23:08;24.30;64.00
40538;DHT22;27925;41.874;12.526;2023-07-29T03:25:33;24.30;63.80
40538;DHT22;27925;41.874;12.526;2023-07-29T03:27:59;24.30;63.70
40538;DHT22;27925;41.874;12.526;2023-07-29T03:30:25;24.40;63.80
40538;DHT22;27925;41.874;12.526;2023-07-29T03:32:51;24.30;63.60
40538;DHT22;27925;41.874;12.526;2023-07-29T03:35:17;24.20;63.70
40538;DHT22;27925;41.874;12.526;2023-07-29T03:37:42;24.20;63.80
40538;DHT22;27925;41.874;12.526;2023-07-29T03:40:09;24.20;63.70
40538;DHT22;27925;41.874;12.526;2023-07-29T03:42:35;24.20;63.70
40538;DHT22;27925;41.874;12.526;2023-07-29T03:45:01;24.20;63.80
40538;DHT22;27925;41.874;12.526;2023-07-29T03:47:27;24.20;64.20
40538;DHT22;27925;41.874;12.526;2023-07-29T03:49:53;24.20;64.10
40538;DHT22;27925;41.874;12.526;2023-07-29T03:52:19;24.20;64.00
40538;DHT22;27925;41.874;12.526;2023-07-29T03:54:45;24.20;64.10
40538;DHT22;27925;41.874;12.526;2023-07-29T03:57:11;24.20;64.10
40538;DHT22;27925;41.874;12.526;2023-07-29T03:59:36;24.20;64.50
40538;DHT22;27925;41.874;12.526;2023-07-29T04:02:02;24.20;64.40
40538;DHT22;27925;41.874;12.526;2023-07-29T04:04:28;24.30;64.50
40538;DHT22;27925;41.874;12.526;2023-07-29T04:06:53;24.30;65.20
40538;DHT22;27925;41.874;12.526;2023-07-29T04:09:19;24.20;64.50
40538;DHT22;27925;41.874;12.526;2023-07-29T04:11:45;24.20;64.50
40538;DHT22;27925;41.874;12.526;2023-07-29T04:14:10;24.20;64.40
40538;DHT22;27925;41.874;12.526;2023-07-29T04:16:36;24.20;64.20
40538;DHT22;27925;41.874;12.526;2023-07-29T04:19:02;24.20;64.20
40538;DHT22;27925;41.874;12.526;2023-07-29T04:21:27;24.20;64.20
40538;DHT22;27925;41.874;12.526;2023-07-29T04:23:53;24.20;64.40
40538;DHT22;27925;41.874;12.526;2023-07-29T04:26:19;24.20;64.60
40538;DHT22;27925;41.874;12.526;2023-07-29T04:28:44;24.20;64.70
40538;DHT22;27925;41.874;12.526;2023-07-29T04:31:10;24.20;64.50
40538;DHT22;27925;41.874;12.526;2023-07-29T04:33:36;24.20;64.90
40538;DHT22;27925;41.874;12.526;2023-07-29T04:36:01;24.10;65.20
40538;DHT22;27925;41.874;12.526;2023-07-29T04:38:31;24.20;65.50
40538;DHT22;27925;41.874;12.526;2023-07-29T04:41:00;24.20;66.20
40538;DHT22;27925;41.874;12.526;2023-07-29T04:43:31;24.10;66.10
40538;DHT22;27925;41.874;12.526;2023-07-29T04:45:57;24.00;66.60
40538;DHT22;27925;41.874;12.526;2023-07-29T04:48:23;24.10;66.70
40538;DHT22;27925;41.874;12.526;2023-07-29T04:50:49;24.00;67.10
40538;DHT22;27925;41.874;12.526;2023-07-29T04:53:14;24.10;67.10
40538;DHT22;27925;41.874;12.526;2023-07-29T04:55:43;24.10;66.90
40538;DHT22;27925;41.874;12.526;2023-07-29T04:58:09;24.10;67.40
40538;DHT22;27925;41.874;12.526;2023-07-29T05:00:35;24.10;68.10
40538;DHT22;27925;41.874;12.526;2023-07-29T05:03:01;24.10;67.20
40538;DHT22;27925;41.874;12.526;2023-07-29T05:05:27;24.10;67.20
40538;DHT22;27925;41.874;12.526;2023-07-29T05:07:52;24.00;67.10
40538;DHT22;27925;41.874;12.526;2023-07-29T05:10:18;24.00;67.10
40538;DHT22;27925;41.874;12.526;2023-07-29T05:12:44;24.10;67.10
40538;DHT22;27925;41.874;12.526;2023-07-29T05:15:10;24.10;67.20
40538;DHT22;27925;41.874;12.526;2023-07-29T05:17:36;24.20;66.80
40538;DHT22;27925;41.874;12.526;2023-07-29T05:20:02;24.20;66.50
40538;DHT22;27925;41.874;12.526;2023-07-29T05:22:28;24.30;66.50
40538;DHT22;27925;41.874;12.526;2023-07-29T05:24:54;24.40;66.30
40538;DHT22;27925;41.874;12.526;2023-07-29T05:27:19;24.70;66.10
40538;DHT22;27925;41.874;12.526;2023-07-29T05:29:45;25.00;65.10
40538;DHT22;27925;41.874;12.526;2023-07-29T05:32:10;25.40;64.50
40538;DHT22;27925;41.874;12.526;2023-07-29T05:34:36;25.80;63.40
40538;DHT22;27925;41.874;12.526;2023-07-29T05:37:02;26.10;62.80
40538;DHT22;27925;41.874;12.526;2023-07-29T05:39:28;26.30;62.00
40538;DHT22;27925;41.874;12.526;2023-07-29T05:41:54;26.50;61.40
40538;DHT22;27925;41.874;12.526;2023-07-29T05:44:20;26.70;60.90
40538;DHT22;27925;41.874;12.526;2023-07-29T05:46:46;26.90;60.40
40538;DHT22;27925;41.874;12.526;2023-07-29T05:49:11;27.10;60.10
40538;DHT22;27925;41.874;12.526;2023-07-29T05:51:37;27.40;59.30
40538;DHT22;27925;41.874;12.526;2023-07-29T05:54:03;27.80;58.80
40538;DHT22;27925;41.874;12.526;2023-07-29T05:56:28;27.80;58.40
40538;DHT22;27925;41.874;12.526;2023-07-29T05:58:55;28.10;58.10
40538;DHT22;27925;41.874;12.526;2023-07-29T06:01:20;28.20;57.60
40538;DHT22;27925;41.874;12.526;2023-07-29T06:03:47;28.30;57.50
40538;DHT22;27925;41.874;12.526;2023-07-29T06:06:13;28.40;57.10
40538;DHT22;27925;41.874;12.526;2023-07-29T06:08:38;28.50;57.00
40538;DHT22;27925;41.874;12.526;2023-07-29T06:11:04;28.70;56.90
40538;DHT22;27925;41.874;12.526;2023-07-29T06:13:32;28.90;56.60
40538;DHT22;27925;41.874;12.526;2023-07-29T06:15:58;28.90;56.50
40538;DHT22;27925;41.874;12.526;2023-07-29T06:18:24;28.90;56.40
40538;DHT22;27925;41.874;12.526;2023-07-29T06:20:50;29.20;56.10
40538;DHT22;27925;41.874;12.526;2023-07-29T06:23:16;29.30;56.00
40538;DHT22;27925;41.874;12.526;2023-07-29T06:25:41;29.30;55.60
40538;DHT22;27925;41.874;12.526;2023-07-29T06:28:09;29.40;55.40
40538;DHT22;27925;41.874;12.526;2023-07-29T06:30:34;29.70;55.30
40538;DHT22;27925;41.874;12.526;2023-07-29T06:33:00;29.90;54.60
40538;DHT22;27925;41.874;12.526;2023-07-29T06:35:26;29.90;54.50
40538;DHT22;27925;41.874;12.526;2023-07-29T06:37:52;30.10;54.20
40538;DHT22;27925;41.874;12.526;2023-07-29T06:40:17;30.20;53.80
40538;DHT22;27925;41.874;12.526;2023-07-29T06:42:43;30.40;53.60
40538;DHT22;27925;41.874;12.526;2023-07-29T06:45:09;30.60;53.10
40538;DHT22;27925;41.874;12.526;2023-07-29T06:47:35;30.70;52.50
40538;DHT22;27925;41.874;12.526;2023-07-29T06:50:01;31.00;52.30
40538;DHT22;27925;41.874;12.526;2023-07-29T06:52:27;31.10;52.10
40538;DHT22;27925;41.874;12.526;2023-07-29T06:54:52;31.20;51.90
40538;DHT22;27925;41.874;12.526;2023-07-29T06:57:18;31.20;51.70
40538;DHT22;27925;41.874;12.526;2023-07-29T06:59:44;31.30;51.80
40538;DHT22;27925;41.874;12.526;2023-07-29T07:02:09;31.40;51.60
40538;DHT22;27925;41.874;12.526;2023-07-29T07:04:35;31.30;51.40
40538;DHT22;27925;41.874;12.526;2023-07-29T07:07:00;31.10;51.20
40538;DHT22;27925;41.874;12.526;2023-07-29T07:09:26;31.00;51.30
40538;DHT22;27925;41.874;12.526;2023-07-29T07:11:52;31.10;51.50
40538;DHT22;27925;41.874;12.526;2023-07-29T07:14:18;31.10;51.30
40538;DHT22;27925;41.874;12.526;2023-07-29T07:16:44;31.10;51.00
40538;DHT22;27925;41.874;12.526;2023-07-29T07:19:10;31.00;51.00
40538;DHT22;27925;41.874;12.526;2023-07-29T07:21:36;30.80;51.00
40538;DHT22;27925;41.874;12.526;2023-07-29T07:24:01;31.00;51.00
40538;DHT22;27925;41.874;12.526;2023-07-29T07:26:27;31.10;50.70
40538;DHT22;27925;41.874;12.526;2023-07-29T07:28:53;31.20;50.70
40538;DHT22;27925;41.874;12.526;2023-07-29T07:31:19;31.30;50.20
40538;DHT22;27925;41.874;12.526;2023-07-29T07:33:45;31.20;50.30
40538;DHT22;27925;41.874;12.526;2023-07-29T07:36:10;31.10;50.60
40538;DHT22;27925;41.874;12.526;2023-07-29T07:38:36;31.00;50.80
40538;DHT22;27925;41.874;12.526;2023-07-29T07:41:02;30.80;51.00
40538;DHT22;27925;41.874;12.526;2023-07-29T07:43:28;30.80;51.00
40538;DHT22;27925;41.874;12.526;2023-07-29T07:46:01;30.90;51.00
40538;DHT22;27925;41.874;12.526;2023-07-29T07:48:29;30.90;50.90
40538;DHT22;27925;41.874;12.526;2023-07-29T07:50:55;31.00;50.50
40538;DHT22;27925;41.874;12.526;2023-07-29T07:53:21;30.90;50.80
40538;DHT22;27925;41.874;12.526;2023-07-29T07:55:47;30.70;51.10
40538;DHT22;27925;41.874;12.526;2023-07-29T07:58:12;30.70;51.20
40538;DHT22;27925;41.874;12.526;2023-07-29T08:00:38;30.60;51.20
40538;DHT22;27925;41.874;12.526;2023-07-29T08:03:04;30.70;51.40
40538;DHT22;27925;41.874;12.526;2023-07-29T08:05:30;30.60;51.20
40538;DHT22;27925;41.874;12.526;2023-07-29T08:07:56;30.50;51.40
40538;DHT22;27925;41.874;12.526;2023-07-29T08:10:22;30.50;51.50
40538;DHT22;27925;41.874;12.526;2023-07-29T08:12:48;30.50;51.60
40538;DHT22;27925;41.874;12.526;2023-07-29T08:15:14;30.60;51.60
40538;DHT22;27925;41.874;12.526;2023-07-29T08:17:39;30.60;51.50
40538;DHT22;27925;41.874;12.526;2023-07-29T08:20:05;30.70;51.60
40538;DHT22;27925;41.874;12.526;2023-07-29T08:22:32;30.60;51.20
40538;DHT22;27925;41.874;12.526;2023-07-29T08:24:57;30.50;51.60
40538;DHT22;27925;41.874;12.526;2023-07-29T08:27:23;30.30;51.80
40538;DHT22;27925;41.874;12.526;2023-07-29T08:29:49;30.30;52.00
40538;DHT22;27925;41.874;12.526;2023-07-29T08:32:14;30.10;52.10
40538;DHT22;27925;41.874;12.526;2023-07-29T08:34:40;30.10;52.30
40538;DHT22;27925;41.874;12.526;2023-07-29T08:37:06;29.90;52.40
40538;DHT22;27925;41.874;12.526;2023-07-29T08:39:32;29.90;52.40
40538;DHT22;27925;41.874;12.526;2023-07-29T08:44:34;29.90;52.60
40538;DHT22;27925;41.874;12.526;2023-07-29T08:47:01;29.90;53.10
40538;DHT22;27925;41.874;12.526;2023-07-29T08:49:27;29.90;52.80
40538;DHT22;27925;41.874;12.526;2023-07-29T08:51:54;29.80;53.00
40538;DHT22;27925;41.874;12.526;2023-07-29T08:54:22;29.80;53.10
40538;DHT22;27925;41.874;12.526;2023-07-29T08:56:48;29.70;52.80
40538;DHT22;27925;41.874;12.526;2023-07-29T08:59:15;29.60;52.90
40538;DHT22;27925;41.874;12.526;2023-07-29T09:01:42;29.50;53.00
40538;DHT22;27925;41.874;12.526;2023-07-29T09:04:09;29.40;53.00
40538;DHT22;27925;41.874;12.526;2023-07-29T09:06:35;29.40;53.20
40538;DHT22;27925;41.874;12.526;2023-07-29T09:09:02;29.30;53.50
40538;DHT22;27925;41.874;12.526;2023-07-29T09:11:28;29.30;53.60
40538;DHT22;27925;41.874;12.526;2023-07-29T09:13:54;29.30;53.10
40538;DHT22;27925;41.874;12.526;2023-07-29T09:16:23;29.30;52.80
40538;DHT22;27925;41.874;12.526;2023-07-29T09:18:50;29.30;53.10
40538;DHT22;27925;41.874;12.526;2023-07-29T09:21:24;29.30;52.70
40538;DHT22;27925;41.874;12.526;2023-07-29T09:23:54;29.40;52.00
40538;DHT22;27925;41.874;12.526;2023-07-29T09:26:27;29.40;52.10
40538;DHT22;27925;41.874;12.526;2023-07-29T09:28:57;29.40;51.40
40538;DHT22;27925;41.874;12.526;2023-07-29T09:31:24;29.50;52.50
40538;DHT22;27925;41.874;12.526;2023-07-29T09:33:58;29.60;52.40
40538;DHT22;27925;41.874;12.526;2023-07-29T09:36:25;29.60;52.30
40538;DHT22;27925;41.874;12.526;2023-07-29T09:38:55;29.70;52.40
40538;DHT22;27925;41.874;12.526;2023-07-29T09:41:26;29.70;52.20
40538;DHT22;27925;41.874;12.526;2023-07-29T09:44:00;29.80;52.10
40538;DHT22;27925;41.874;12.526;2023-07-29T09:46:35;29.90;51.90
40538;DHT22;27925;41.874;12.526;2023-07-29T09:49:05;29.90;51.20
40538;DHT22;27925;41.874;12.526;2023-07-29T09:51:31;29.90;50.70
40538;DHT22;27925;41.874;12.526;2023-07-29T09:53:57;30.00;50.20
40538;DHT22;27925;41.874;12.526;2023-07-29T09:56:27;30.00;50.00
40538;DHT22;27925;41.874;12.526;2023-07-29T09:58:55;30.00;49.80
40538;DHT22;27925;41.874;12.526;2023-07-29T10:01:21;30.00;50.00
40538;DHT22;27925;41.874;12.526;2023-07-29T10:03:48;30.10;50.40
40538;DHT22;27925;41.874;12.526;2023-07-29T10:06:15;30.00;50.90
40538;DHT22;27925;41.874;12.526;2023-07-29T10:08:42;29.90;51.10
40538;DHT22;27925;41.874;12.526;2023-07-29T10:11:09;29.80;51.30
40538;DHT22;27925;41.874;12.526;2023-07-29T10:13:36;29.80;51.50
40538;DHT22;27925;41.874;12.526;2023-07-29T10:16:02;29.80;52.20
40538;DHT22;27925;41.874;12.526;2023-07-29T10:18:29;29.90;51.70
40538;DHT22;27925;41.874;12.526;2023-07-29T10:20:58;30.00;51.80
40538;DHT22;27925;41.874;12.526;2023-07-29T10:23:26;30.00;51.80
40538;DHT22;27925;41.874;12.526;2023-07-29T10:26:03;30.10;51.60
40538;DHT22;27925;41.874;12.526;2023-07-29T10:28:30;30.20;51.40
40538;DHT22;27925;41.874;12.526;2023-07-29T10:30:56;30.20;51.30
40538;DHT22;27925;41.874;12.526;2023-07-29T10:33:22;30.20;51.30
40538;DHT22;27925;41.874;12.526;2023-07-29T10:35:48;30.30;51.40
40538;DHT22;27925;41.874;12.526;2023-07-29T10:38:15;30.30;51.10
40538;DHT22;27925;41.874;12.526;2023-07-29T10:43:36;30.50;51.00
40538;DHT22;27925;41.874;12.526;2023-07-29T10:46:20;30.60;51.20
40538;DHT22;27925;41.874;12.526;2023-07-29T10:48:53;30.70;50.90
40538;DHT22;27925;41.874;12.526;2023-07-29T10:51:35;30.80;50.80
40538;DHT22;27925;41.874;12.526;2023-07-29T10:54:02;31.00;50.60
40538;DHT22;27925;41.874;12.526;2023-07-29T10:56:35;31.00;50.40
40538;DHT22;27925;41.874;12.526;2023-07-29T11:01:53;31.20;49.60
40538;DHT22;27925;41.874;12.526;2023-07-29T11:09:51;31.40;52.20
40538;DHT22;27925;41.874;12.526;2023-07-29T11:12:45;31.40;53.40
40538;DHT22;27925;41.874;12.526;2023-07-29T11:17:55;31.50;53.90
40538;DHT22;27925;41.874;12.526;2023-07-29T11:20:32;31.60;54.10
40538;DHT22;27925;41.874;12.526;2023-07-29T11:23:02;31.50;55.20
40538;DHT22;27925;41.874;12.526;2023-07-29T11:25:29;31.50;55.50
40538;DHT22;27925;41.874;12.526;2023-07-29T11:27:57;31.60;55.30
40538;DHT22;27925;41.874;12.526;2023-07-29T11:30:23;31.60;55.70
40538;DHT22;27925;41.874;12.526;2023-07-29T11:32:53;31.70;55.70
40538;DHT22;27925;41.874;12.526;2023-07-29T11:35:19;31.70;55.90
40538;DHT22;27925;41.874;12.526;2023-07-29T11:37:47;31.70;55.70
40538;DHT22;27925;41.874;12.526;2023-07-29T11:40:21;31.80;55.60
40538;DHT22;27925;41.874;12.526;2023-07-29T11:42:48;31.80;54.90
40538;DHT22;27925;41.874;12.526;2023-07-29T11:45:16;31.80;55.70
40538;DHT22;27925;41.874;12.526;2023-07-29T11:47:42;31.80;55.80
40538;DHT22;27925;41.874;12.526;2023-07-29T11:50:10;31.80;55.70
40538;DHT22;27925;41.874;12.526;2023-07-29T11:52:40;31.90;55.50
40538;DHT22;27925;41.874;12.526;2023-07-29T11:55:06;31.90;55.50
40538;DHT22;27925;41.874;12.526;2023-07-29T11:57:37;32.00;55.30
40538;DHT22;27925;41.874;12.526;2023-07-29T12:00:04;32.10;55.70
40538;DHT22;27925;41.874;12.526;2023-07-29T12:02:36;32.10;55.10
40538;DHT22;27925;41.874;12.526;2023-07-29T12:05:03;32.20;54.50
40538;DHT22;27925;41.874;12.526;2023-07-29T12:07:29;32.30;55.20
40538;DHT22;27925;41.874;12.526;2023-07-29T12:09:55;32.20;55.30
40538;DHT22;27925;41.874;12.526;2023-07-29T12:12:23;32.20;55.30
40538;DHT22;27925;41.874;12.526;2023-07-29T12:14:48;32.30;55.40
40538;DHT22;27925;41.874;12.526;2023-07-29T12:17:15;32.30;55.40
40538;DHT22;27925;41.874;12.526;2023-07-29T12:19:41;32.30;55.10
40538;DHT22;27925;41.874;12.526;2023-07-29T12:22:09;32.40;55.30
40538;DHT22;27925;41.874;12.526;2023-07-29T12:24:39;32.40;55.20
40538;DHT22;27925;41.874;12.526;2023-07-29T12:27:13;32.50;55.30
40538;DHT22;27925;41.874;12.526;2023-07-29T12:29:43;32.50;54.50
40538;DHT22;27925;41.874;12.526;2023-07-29T12:32:09;32.50;55.50
40538;DHT22;27925;41.874;12.526;2023-07-29T12:34:37;32.50;55.30
40538;DHT22;27925;41.874;12.526;2023-07-29T12:37:04;32.60;55.60
40538;DHT22;27925;41.874;12.526;2023-07-29T12:39:32;32.70;55.00
40538;DHT22;27925;41.874;12.526;2023-07-29T12:42:00;32.80;55.30
40538;DHT22;27925;41.874;12.526;2023-07-29T12:44:33;32.80;55.30
40538;DHT22;27925;41.874;12.526;2023-07-29T12:47:01;32.70;55.20
40538;DHT22;27925;41.874;12.526;2023-07-29T12:49:28;32.60;55.20
40538;DHT22;27925;41.874;12.526;2023-07-29T12:51:55;32.60;55.50
40538;DHT22;27925;41.874;12.526;2023-07-29T12:54:21;32.70;55.40
40538;DHT22;27925;41.874;12.526;2023-07-29T12:56:47;32.70;55.40
40538;DHT22;27925;41.874;12.526;2023-07-29T12:59:12;32.70;55.50
40538;DHT22;27925;41.874;12.526;2023-07-29T13:01:38;32.80;56.10
40538;DHT22;27925;41.874;12.526;2023-07-29T13:04:04;32.70;55.50
40538;DHT22;27925;41.874;12.526;2023-07-29T13:06:29;32.70;55.60
40538;DHT22;27925;41.874;12.526;2023-07-29T13:08:56;32.80;55.70
40538;DHT22;27925;41.874;12.526;2023-07-29T13:11:21;32.70;55.50
40538;DHT22;27925;41.874;12.526;2023-07-29T13:13:47;32.70;55.70
40538;DHT22;27925;41.874;12.526;2023-07-29T13:16:13;32.80;55.90
40538;DHT22;27925;41.874;12.526;2023-07-29T13:18:39;32.70;56.10
40538;DHT22;27925;41.874;12.526;2023-07-29T13:21:05;32.80;56.10
40538;DHT22;27925;41.874;12.526;2023-07-29T13:23:31;32.80;56.00
40538;DHT22;27925;41.874;12.526;2023-07-29T13:25:57;32.70;55.90
40538;DHT22;27925;41.874;12.526;2023-07-29T13:28:23;32.70;56.00
40538;DHT22;27925;41.874;12.526;2023-07-29T13:30:49;32.70;55.90
40538;DHT22;27925;41.874;12.526;2023-07-29T13:33:15;32.60;55.90
40538;DHT22;27925;41.874;12.526;2023-07-29T13:35:40;32.70;56.00
40538;DHT22;27925;41.874;12.526;2023-07-29T13:38:06;32.60;56.00
40538;DHT22;27925;41.874;12.526;2023-07-29T13:40:32;32.70;56.20
40538;DHT22;27925;41.874;12.526;2023-07-29T13:42:58;32.80;56.40
40538;DHT22;27925;41.874;12.526;2023-07-29T13:45:23;32.80;56.40
40538;DHT22;27925;41.874;12.526;2023-07-29T13:47:50;32.80;56.50
40538;DHT22;27925;41.874;12.526;2023-07-29T13:50:16;32.70;56.60
40538;DHT22;27925;41.874;12.526;2023-07-29T13:52:42;32.70;56.60
40538;DHT22;27925;41.874;12.526;2023-07-29T13:55:08;32.80;56.40
40538;DHT22;27925;41.874;12.526;2023-07-29T13:57:34;32.80;56.50
40538;DHT22;27925;41.874;12.526;2023-07-29T13:59:59;32.80;56.50
40538;DHT22;27925;41.874;12.526;2023-07-29T14:02:25;32.90;56.50
40538;DHT22;27925;41.874;12.526;2023-07-29T14:04:56;32.90;55.90
40538;DHT22;27925;41.874;12.526;2023-07-29T14:07:22;32.90;56.50
40538;DHT22;27925;41.874;12.526;2023-07-29T14:09:47;32.90;56.30
40538;DHT22;27925;41.874;12.526;2023-07-29T14:12:13;32.90;56.20
40538;DHT22;27925;41.874;12.526;2023-07-29T14:14:41;32.90;56.20
40538;DHT22;27925;41.874;12.526;2023-07-29T14:17:07;32.90;56.50
40538;DHT22;27925;41.874;12.526;2023-07-29T14:19:36;32.90;55.60
40538;DHT22;27925;41.874;12.526;2023-07-29T14:22:02;32.90;56.30
40538;DHT22;27925;41.874;12.526;2023-07-29T14:24:28;32.90;56.00
40538;DHT22;27925;41.874;12.526;2023-07-29T14:26:54;32.90;55.90
40538;DHT22;27925;41.874;12.526;2023-07-29T14:29:19;32.90;55.80
40538;DHT22;27925;41.874;12.526;2023-07-29T14:31:45;32.90;55.70
40538;DHT22;27925;41.874;12.526;2023-07-29T14:34:11;32.90;56.00
40538;DHT22;27925;41.874;12.526;2023-07-29T14:36:36;33.00;56.30
40538;DHT22;27925;41.874;12.526;2023-07-29T14:39:02;33.00;56.40
40538;DHT22;27925;41.874;12.526;2023-07-29T14:41:28;33.00;56.60
40538;DHT22;27925;41.874;12.526;2023-07-29T14:43:54;33.00;56.90
40538;DHT22;27925;41.874;12.526;2023-07-29T14:46:20;33.00;57.00
40538;DHT22;27925;41.874;12.526;2023-07-29T14:48:47;33.00;56.60
40538;DHT22;27925;41.874;12.526;2023-07-29T14:51:13;33.00;56.90
40538;DHT22;27925;41.874;12.526;2023-07-29T14:53:39;33.00;57.10
40538;DHT22;27925;41.874;12.526;2023-07-29T14:56:05;33.00;57.10
40538;DHT22;27925;41.874;12.526;2023-07-29T14:58:31;32.90;57.10
40538;DHT22;27925;41.874;12.526;2023-07-29T15:00:56;33.00;57.20
40538;DHT22;27925;41.874;12.526;2023-07-29T15:03:23;32.90;57.20
40538;DHT22;27925;41.874;12.526;2023-07-29T15:05:49;32.90;57.10
40538;DHT22;27925;41.874;12.526;2023-07-29T15:08:15;32.90;57.10
40538;DHT22;27925;41.874;12.526;2023-07-29T15:10:44;32.90;57.10
40538;DHT22;27925;41.874;12.526;2023-07-29T15:13:10;32.90;57.50
40538;DHT22;27925;41.874;12.526;2023-07-29T15:15:35;32.90;57.30
40538;DHT22;27925;41.874;12.526;2023-07-29T15:18:01;32.90;57.30
40538;DHT22;27925;41.874;12.526;2023-07-29T15:20:27;32.80;57.30
40538;DHT22;27925;41.874;12.526;2023-07-29T15:22:52;32.80;57.00
40538;DHT22;27925;41.874;12.526;2023-07-29T15:25:18;32.90;56.90
40538;DHT22;27925;41.874;12.526;2023-07-29T15:27:44;32.90;56.70
40538;DHT22;27925;41.874;12.526;2023-07-29T15:30:09;32.80;56.20
40538;DHT22;27925;41.874;12.526;2023-07-29T15:32:37;32.80;56.30
40538;DHT22;27925;41.874;12.526;2023-07-29T15:35:03;32.70;56.60
40538;DHT22;27925;41.874;12.526;2023-07-29T15:37:29;32.70;56.60
40538;DHT22;27925;41.874;12.526;2023-07-29T15:39:54;32.60;56.50
40538;DHT22;27925;41.874;12.526;2023-07-29T15:42:20;32.60;56.70